Etusivu
METAR-TAF:

METAR-TAF

Lentoasemat :

Mumbai, Intia

Leveyspiiri: 19-05-53N, Pituuspiiri: 072-50-02E, korkeus merenpinnasta: 4 m

Tämänhetkinen sää

Tämä raportti tehtiin 14 minuuttia sitten, kello 11.00 UTC
Tuuli 12 kn luoteesta
Lämpötila 30°C
Kosteus 49%
Ilmanpaine 1009 hPa
Näkyvyys: 6000 m

METAR: VAJJ 261100Z 31012KT 6000 NSC 30/18 Q1009 BECMG 5000 FU

Aika: 16:44 (11:14 UTC)


TAF: puuttuu

Säähavainnot ja -ennusteet yli 4000 lentoasemalta (METAR- ja TAF-raportit).

Käytössä olevat sääasemat on merkitty karttaan keltaisilla ja punaisilla pisteillä.

Aseta hiiri pisteen päälle nähdäksesi sääaseman nimen.

Klikkaa sitten nähdäksesi säähavainnot ja -ennusteet.

Kartan vaihtaminen: klikkaa mustalla rastilla varustettuja vihreitä pisteitä, niin voit zoomata sisään; viivalla varustettua vihreää pistettä, niin voit zoomata ulos tai vihreitä nuolia, niin pääset viereisille kartoille.


METAR-TAF: